Broadway, United Kingdom
Current Conditions -  °F | °C
As of 8:50 AM on Saturday 22 Nov 2014 (Local Time) from EGBJ Reporting Station
Broken Clouds Broken Clouds  
Wind Chill: 57°   Ceiling: 1500
Heat Index: 57°   Visibility: 6mi
Dew Point: 55°   Wind: 10mph
Humidity: 94%   Direction: 160°SSE
Pressure: 29.83"   Gusts: NA
Location:  52.03°N, 1.85°W
Report Text: EGBJ 220850Z 16009KT 9999 SCT008 BKN015 14/13 Q1010
Loading
Personal Weather Stations






























Interactive Weather Map New forecast layout! Learn more

10-Day Weather Forecast

Advertisements
Track Severe Weather on mobile